sensor_id;sensor_type;location;lat;lon;timestamp;temperature;humidity
11532;DHT22;5822;51.000;5.874;2023-07-30T00:02:16;20.10;99.90
11532;DHT22;5822;51.000;5.874;2023-07-30T00:04:42;20.10;99.90
11532;DHT22;5822;51.000;5.874;2023-07-30T00:07:08;20.10;99.90
11532;DHT22;5822;51.000;5.874;2023-07-30T00:09:33;20.10;99.90
11532;DHT22;5822;51.000;5.874;2023-07-30T00:11:59;20.10;99.90
11532;DHT22;5822;51.000;5.874;2023-07-30T00:14:24;20.20;99.90
11532;DHT22;5822;51.000;5.874;2023-07-30T00:16:50;20.10;99.90
11532;DHT22;5822;51.000;5.874;2023-07-30T00:19:16;20.20;99.90
11532;DHT22;5822;51.000;5.874;2023-07-30T00:21:41;20.20;99.90
11532;DHT22;5822;51.000;5.874;2023-07-30T00:24:11;20.20;99.90
11532;DHT22;5822;51.000;5.874;2023-07-30T00:26:37;20.20;99.90
11532;DHT22;5822;51.000;5.874;2023-07-30T00:29:03;20.10;99.90
11532;DHT22;5822;51.000;5.874;2023-07-30T00:31:29;20.20;99.90
11532;DHT22;5822;51.000;5.874;2023-07-30T00:33:55;20.20;99.90
11532;DHT22;5822;51.000;5.874;2023-07-30T00:36:20;20.20;99.90
11532;DHT22;5822;51.000;5.874;2023-07-30T00:38:46;20.20;99.90
11532;DHT22;5822;51.000;5.874;2023-07-30T00:41:12;20.30;99.90
11532;DHT22;5822;51.000;5.874;2023-07-30T00:43:37;20.30;99.90
11532;DHT22;5822;51.000;5.874;2023-07-30T00:46:03;20.30;99.90
11532;DHT22;5822;51.000;5.874;2023-07-30T00:48:29;20.30;99.90
11532;DHT22;5822;51.000;5.874;2023-07-30T00:50:56;20.20;99.90
11532;DHT22;5822;51.000;5.874;2023-07-30T00:53:22;20.20;99.90
11532;DHT22;5822;51.000;5.874;2023-07-30T00:55:49;20.20;99.90
11532;DHT22;5822;51.000;5.874;2023-07-30T00:58:15;20.30;99.90
11532;DHT22;5822;51.000;5.874;2023-07-30T01:00:41;20.20;99.90
11532;DHT22;5822;51.000;5.874;2023-07-30T01:03:07;20.20;99.90
11532;DHT22;5822;51.000;5.874;2023-07-30T01:05:33;20.10;99.90
11532;DHT22;5822;51.000;5.874;2023-07-30T01:07:59;20.20;99.90
11532;DHT22;5822;51.000;5.874;2023-07-30T01:10:26;20.20;99.90
11532;DHT22;5822;51.000;5.874;2023-07-30T01:12:52;20.10;99.90
11532;DHT22;5822;51.000;5.874;2023-07-30T01:15:18;20.10;99.90
11532;DHT22;5822;51.000;5.874;2023-07-30T01:17:44;20.10;99.90
11532;DHT22;5822;51.000;5.874;2023-07-30T01:20:11;20.00;99.90
11532;DHT22;5822;51.000;5.874;2023-07-30T01:22:37;20.00;99.90
11532;DHT22;5822;51.000;5.874;2023-07-30T01:25:03;20.00;99.90
11532;DHT22;5822;51.000;5.874;2023-07-30T01:27:30;20.00;99.90
11532;DHT22;5822;51.000;5.874;2023-07-30T01:30:07;20.00;99.90
11532;DHT22;5822;51.000;5.874;2023-07-30T01:32:34;20.00;99.90
11532;DHT22;5822;51.000;5.874;2023-07-30T01:35:02;20.00;99.90
11532;DHT22;5822;51.000;5.874;2023-07-30T01:37:29;20.00;99.90
11532;DHT22;5822;51.000;5.874;2023-07-30T01:39:56;19.90;99.90
11532;DHT22;5822;51.000;5.874;2023-07-30T01:42:28;19.90;99.90
11532;DHT22;5822;51.000;5.874;2023-07-30T01:44:53;19.80;99.90
11532;DHT22;5822;51.000;5.874;2023-07-30T01:47:19;19.80;99.90
11532;DHT22;5822;51.000;5.874;2023-07-30T01:49:45;19.80;99.90
11532;DHT22;5822;51.000;5.874;2023-07-30T01:52:10;19.80;99.90
11532;DHT22;5822;51.000;5.874;2023-07-30T01:54:36;19.80;99.90
11532;DHT22;5822;51.000;5.874;2023-07-30T01:57:02;19.80;99.90
11532;DHT22;5822;51.000;5.874;2023-07-30T01:59:27;19.70;99.90
11532;DHT22;5822;51.000;5.874;2023-07-30T02:01:53;19.70;99.90
11532;DHT22;5822;51.000;5.874;2023-07-30T02:04:18;19.70;99.90
11532;DHT22;5822;51.000;5.874;2023-07-30T02:06:44;19.70;99.90
11532;DHT22;5822;51.000;5.874;2023-07-30T02:09:10;19.70;99.90
11532;DHT22;5822;51.000;5.874;2023-07-30T02:11:35;19.60;99.90
11532;DHT22;5822;51.000;5.874;2023-07-30T02:14:01;19.60;99.90
11532;DHT22;5822;51.000;5.874;2023-07-30T02:16:26;19.60;99.90
11532;DHT22;5822;51.000;5.874;2023-07-30T02:18:52;19.60;99.90
11532;DHT22;5822;51.000;5.874;2023-07-30T02:21:18;19.50;99.90
11532;DHT22;5822;51.000;5.874;2023-07-30T02:23:43;19.50;99.90
11532;DHT22;5822;51.000;5.874;2023-07-30T02:26:09;19.50;99.90
11532;DHT22;5822;51.000;5.874;2023-07-30T02:28:34;19.40;99.90
11532;DHT22;5822;51.000;5.874;2023-07-30T02:31:00;19.50;99.90
11532;DHT22;5822;51.000;5.874;2023-07-30T02:33:26;19.40;99.90
11532;DHT22;5822;51.000;5.874;2023-07-30T02:35:52;19.40;99.90
11532;DHT22;5822;51.000;5.874;2023-07-30T02:38:17;19.40;99.90
11532;DHT22;5822;51.000;5.874;2023-07-30T02:40:43;19.40;99.90
11532;DHT22;5822;51.000;5.874;2023-07-30T02:43:08;19.40;99.90
11532;DHT22;5822;51.000;5.874;2023-07-30T02:45:34;19.50;99.90
11532;DHT22;5822;51.000;5.874;2023-07-30T02:48:00;19.50;99.90
11532;DHT22;5822;51.000;5.874;2023-07-30T02:50:25;19.50;99.90
11532;DHT22;5822;51.000;5.874;2023-07-30T02:52:51;19.50;99.90
11532;DHT22;5822;51.000;5.874;2023-07-30T02:55:16;19.60;99.90
11532;DHT22;5822;51.000;5.874;2023-07-30T02:57:42;19.60;99.90
11532;DHT22;5822;51.000;5.874;2023-07-30T03:00:08;19.60;99.90
11532;DHT22;5822;51.000;5.874;2023-07-30T03:02:36;19.60;99.90
11532;DHT22;5822;51.000;5.874;2023-07-30T03:05:02;19.50;99.90
11532;DHT22;5822;51.000;5.874;2023-07-30T03:07:28;19.40;99.90
11532;DHT22;5822;51.000;5.874;2023-07-30T03:09:53;19.50;99.90
11532;DHT22;5822;51.000;5.874;2023-07-30T03:12:19;19.50;99.90
11532;DHT22;5822;51.000;5.874;2023-07-30T03:14:45;19.50;99.90
11532;DHT22;5822;51.000;5.874;2023-07-30T03:17:10;19.40;99.90
11532;DHT22;5822;51.000;5.874;2023-07-30T03:19:36;19.30;99.90
11532;DHT22;5822;51.000;5.874;2023-07-30T03:22:02;19.40;99.90
11532;DHT22;5822;51.000;5.874;2023-07-30T03:24:27;19.30;99.90
11532;DHT22;5822;51.000;5.874;2023-07-30T03:26:53;19.30;99.90
11532;DHT22;5822;51.000;5.874;2023-07-30T03:29:19;19.30;99.90
11532;DHT22;5822;51.000;5.874;2023-07-30T03:31:44;19.30;99.90
11532;DHT22;5822;51.000;5.874;2023-07-30T03:34:10;19.30;99.90
11532;DHT22;5822;51.000;5.874;2023-07-30T03:36:36;19.30;99.90
11532;DHT22;5822;51.000;5.874;2023-07-30T03:39:01;19.20;99.90
11532;DHT22;5822;51.000;5.874;2023-07-30T03:41:27;19.30;99.90
11532;DHT22;5822;51.000;5.874;2023-07-30T03:43:53;19.30;99.90
11532;DHT22;5822;51.000;5.874;2023-07-30T03:46:18;19.20;99.90
11532;DHT22;5822;51.000;5.874;2023-07-30T03:48:45;19.10;99.90
11532;DHT22;5822;51.000;5.874;2023-07-30T03:51:11;19.10;99.90
11532;DHT22;5822;51.000;5.874;2023-07-30T03:53:36;19.20;99.90
11532;DHT22;5822;51.000;5.874;2023-07-30T03:56:02;19.10;99.90
11532;DHT22;5822;51.000;5.874;2023-07-30T03:58:28;19.00;99.90
11532;DHT22;5822;51.000;5.874;2023-07-30T04:00:53;19.00;99.90
11532;DHT22;5822;51.000;5.874;2023-07-30T04:03:19;18.90;99.90
11532;DHT22;5822;51.000;5.874;2023-07-30T04:05:45;18.90;99.90
11532;DHT22;5822;51.000;5.874;2023-07-30T04:08:10;18.80;99.90
11532;DHT22;5822;51.000;5.874;2023-07-30T04:10:36;18.90;99.90
11532;DHT22;5822;51.000;5.874;2023-07-30T04:13:01;18.80;99.90
11532;DHT22;5822;51.000;5.874;2023-07-30T04:15:27;18.80;99.90
11532;DHT22;5822;51.000;5.874;2023-07-30T04:17:53;18.80;99.90
11532;DHT22;5822;51.000;5.874;2023-07-30T04:20:19;18.70;99.90
11532;DHT22;5822;51.000;5.874;2023-07-30T04:22:44;18.70;99.90
11532;DHT22;5822;51.000;5.874;2023-07-30T04:25:10;18.70;99.90
11532;DHT22;5822;51.000;5.874;2023-07-30T04:27:38;18.70;99.90
11532;DHT22;5822;51.000;5.874;2023-07-30T04:30:07;18.80;99.90
11532;DHT22;5822;51.000;5.874;2023-07-30T04:32:33;18.80;99.90
11532;DHT22;5822;51.000;5.874;2023-07-30T04:35:00;18.70;99.90
11532;DHT22;5822;51.000;5.874;2023-07-30T04:37:26;18.70;99.90
11532;DHT22;5822;51.000;5.874;2023-07-30T04:39:51;18.70;99.90
11532;DHT22;5822;51.000;5.874;2023-07-30T04:42:17;18.70;99.90
11532;DHT22;5822;51.000;5.874;2023-07-30T04:44:43;18.70;99.90
11532;DHT22;5822;51.000;5.874;2023-07-30T04:47:09;18.70;99.90
11532;DHT22;5822;51.000;5.874;2023-07-30T04:49:34;18.80;99.90
11532;DHT22;5822;51.000;5.874;2023-07-30T04:52:02;18.70;99.90
11532;DHT22;5822;51.000;5.874;2023-07-30T04:54:28;18.70;99.90
11532;DHT22;5822;51.000;5.874;2023-07-30T04:56:54;18.70;99.90
11532;DHT22;5822;51.000;5.874;2023-07-30T04:59:19;18.80;99.90
11532;DHT22;5822;51.000;5.874;2023-07-30T05:01:45;18.80;99.90
11532;DHT22;5822;51.000;5.874;2023-07-30T05:04:11;18.70;99.90
11532;DHT22;5822;51.000;5.874;2023-07-30T05:06:36;18.80;99.90
11532;DHT22;5822;51.000;5.874;2023-07-30T05:09:02;18.80;99.90
11532;DHT22;5822;51.000;5.874;2023-07-30T05:11:28;18.80;99.90
11532;DHT22;5822;51.000;5.874;2023-07-30T05:13:53;18.80;99.90
11532;DHT22;5822;51.000;5.874;2023-07-30T05:16:19;18.90;99.90
11532;DHT22;5822;51.000;5.874;2023-07-30T05:18:44;18.80;99.90
11532;DHT22;5822;51.000;5.874;2023-07-30T05:21:10;18.80;99.90
11532;DHT22;5822;51.000;5.874;2023-07-30T05:23:36;18.80;99.90
11532;DHT22;5822;51.000;5.874;2023-07-30T05:26:01;18.80;99.90
11532;DHT22;5822;51.000;5.874;2023-07-30T05:28:27;18.80;99.90
11532;DHT22;5822;51.000;5.874;2023-07-30T05:30:52;18.90;99.90
11532;DHT22;5822;51.000;5.874;2023-07-30T05:33:18;19.00;99.90
11532;DHT22;5822;51.000;5.874;2023-07-30T05:35:44;19.00;99.90
11532;DHT22;5822;51.000;5.874;2023-07-30T05:38:11;18.90;99.90
11532;DHT22;5822;51.000;5.874;2023-07-30T05:40:36;18.90;99.90
11532;DHT22;5822;51.000;5.874;2023-07-30T05:43:04;18.90;99.90
11532;DHT22;5822;51.000;5.874;2023-07-30T05:45:29;19.00;99.90
11532;DHT22;5822;51.000;5.874;2023-07-30T05:47:55;19.00;99.90
11532;DHT22;5822;51.000;5.874;2023-07-30T05:50:21;19.00;99.90
11532;DHT22;5822;51.000;5.874;2023-07-30T05:52:46;19.00;99.90
11532;DHT22;5822;51.000;5.874;2023-07-30T05:55:12;18.90;99.90
11532;DHT22;5822;51.000;5.874;2023-07-30T05:57:38;19.00;99.90
11532;DHT22;5822;51.000;5.874;2023-07-30T06:00:04;19.00;99.90
11532;DHT22;5822;51.000;5.874;2023-07-30T06:02:29;19.10;99.90
11532;DHT22;5822;51.000;5.874;2023-07-30T06:04:55;19.10;99.90
11532;DHT22;5822;51.000;5.874;2023-07-30T06:07:21;19.10;99.90
11532;DHT22;5822;51.000;5.874;2023-07-30T06:09:46;19.10;99.90
11532;DHT22;5822;51.000;5.874;2023-07-30T06:12:12;19.10;99.90
11532;DHT22;5822;51.000;5.874;2023-07-30T06:14:37;19.10;99.90
11532;DHT22;5822;51.000;5.874;2023-07-30T06:17:03;19.20;99.90
11532;DHT22;5822;51.000;5.874;2023-07-30T06:19:29;19.30;99.90
11532;DHT22;5822;51.000;5.874;2023-07-30T06:21:54;19.40;99.90
11532;DHT22;5822;51.000;5.874;2023-07-30T06:24:20;19.30;99.90
11532;DHT22;5822;51.000;5.874;2023-07-30T06:26:46;19.30;99.90
11532;DHT22;5822;51.000;5.874;2023-07-30T06:29:11;19.40;99.90
11532;DHT22;5822;51.000;5.874;2023-07-30T06:31:37;19.40;99.90
11532;DHT22;5822;51.000;5.874;2023-07-30T06:34:03;19.40;99.90
11532;DHT22;5822;51.000;5.874;2023-07-30T06:36:28;19.40;99.90
11532;DHT22;5822;51.000;5.874;2023-07-30T06:38:54;19.40;99.90
11532;DHT22;5822;51.000;5.874;2023-07-30T06:41:20;19.40;99.90
11532;DHT22;5822;51.000;5.874;2023-07-30T06:43:46;19.40;99.90
11532;DHT22;5822;51.000;5.874;2023-07-30T06:46:12;19.40;99.90
11532;DHT22;5822;51.000;5.874;2023-07-30T06:48:38;19.40;99.90
11532;DHT22;5822;51.000;5.874;2023-07-30T06:51:06;19.40;99.90
11532;DHT22;5822;51.000;5.874;2023-07-30T06:53:33;19.40;99.90
11532;DHT22;5822;51.000;5.874;2023-07-30T06:55:59;19.50;99.90
11532;DHT22;5822;51.000;5.874;2023-07-30T06:58:24;19.60;99.90
11532;DHT22;5822;51.000;5.874;2023-07-30T07:00:50;19.50;99.90
11532;DHT22;5822;51.000;5.874;2023-07-30T07:03:16;19.50;99.90
11532;DHT22;5822;51.000;5.874;2023-07-30T07:05:41;19.50;99.90
11532;DHT22;5822;51.000;5.874;2023-07-30T07:08:07;19.40;99.90
11532;DHT22;5822;51.000;5.874;2023-07-30T07:10:32;19.60;99.90
11532;DHT22;5822;51.000;5.874;2023-07-30T07:12:58;19.60;99.90
11532;DHT22;5822;51.000;5.874;2023-07-30T07:15:24;19.60;99.90
11532;DHT22;5822;51.000;5.874;2023-07-30T07:17:49;19.70;99.90
11532;DHT22;5822;51.000;5.874;2023-07-30T07:20:15;19.70;99.90
11532;DHT22;5822;51.000;5.874;2023-07-30T07:22:41;19.70;99.90
11532;DHT22;5822;51.000;5.874;2023-07-30T07:25:07;19.60;99.90
11532;DHT22;5822;51.000;5.874;2023-07-30T07:27:32;19.60;99.90
11532;DHT22;5822;51.000;5.874;2023-07-30T07:29:58;19.70;99.90
11532;DHT22;5822;51.000;5.874;2023-07-30T07:32:24;19.70;99.90
11532;DHT22;5822;51.000;5.874;2023-07-30T07:34:50;19.70;99.90
11532;DHT22;5822;51.000;5.874;2023-07-30T07:37:16;19.60;99.90
11532;DHT22;5822;51.000;5.874;2023-07-30T07:39:44;19.70;99.90
11532;DHT22;5822;51.000;5.874;2023-07-30T07:42:11;19.60;99.90
11532;DHT22;5822;51.000;5.874;2023-07-30T07:44:36;19.50;99.90
11532;DHT22;5822;51.000;5.874;2023-07-30T07:47:02;19.50;99.90
11532;DHT22;5822;51.000;5.874;2023-07-30T07:49:28;19.50;99.90
11532;DHT22;5822;51.000;5.874;2023-07-30T07:51:54;19.50;99.90
11532;DHT22;5822;51.000;5.874;2023-07-30T07:54:19;19.40;99.90
11532;DHT22;5822;51.000;5.874;2023-07-30T07:56:45;19.30;99.90
11532;DHT22;5822;51.000;5.874;2023-07-30T07:59:10;19.40;99.90
11532;DHT22;5822;51.000;5.874;2023-07-30T08:01:36;19.50;99.90
11532;DHT22;5822;51.000;5.874;2023-07-30T08:04:02;19.50;99.90
11532;DHT22;5822;51.000;5.874;2023-07-30T08:06:28;19.60;99.90
11532;DHT22;5822;51.000;5.874;2023-07-30T08:08:53;19.50;99.90
11532;DHT22;5822;51.000;5.874;2023-07-30T08:11:19;19.50;99.90
11532;DHT22;5822;51.000;5.874;2023-07-30T08:13:44;19.50;99.90
11532;DHT22;5822;51.000;5.874;2023-07-30T08:16:11;19.40;99.90
11532;DHT22;5822;51.000;5.874;2023-07-30T08:18:37;19.50;99.90
11532;DHT22;5822;51.000;5.874;2023-07-30T08:21:02;19.50;99.90
11532;DHT22;5822;51.000;5.874;2023-07-30T08:23:28;19.50;99.90
11532;DHT22;5822;51.000;5.874;2023-07-30T08:25:54;19.50;99.90
11532;DHT22;5822;51.000;5.874;2023-07-30T08:28:19;19.50;99.90
11532;DHT22;5822;51.000;5.874;2023-07-30T08:30:45;19.50;99.90
11532;DHT22;5822;51.000;5.874;2023-07-30T08:33:11;19.60;99.90
11532;DHT22;5822;51.000;5.874;2023-07-30T08:35:37;19.70;99.90
11532;DHT22;5822;51.000;5.874;2023-07-30T08:38:02;19.70;99.90
11532;DHT22;5822;51.000;5.874;2023-07-30T08:40:28;19.80;99.90
11532;DHT22;5822;51.000;5.874;2023-07-30T08:42:54;19.80;99.90
11532;DHT22;5822;51.000;5.874;2023-07-30T08:45:20;19.80;99.90
11532;DHT22;5822;51.000;5.874;2023-07-30T08:47:46;19.80;99.90
11532;DHT22;5822;51.000;5.874;2023-07-30T08:50:13;19.90;99.90
11532;DHT22;5822;51.000;5.874;2023-07-30T08:52:40;19.90;99.90
11532;DHT22;5822;51.000;5.874;2023-07-30T08:55:06;20.00;99.90
11532;DHT22;5822;51.000;5.874;2023-07-30T08:57:33;20.00;99.90
11532;DHT22;5822;51.000;5.874;2023-07-30T09:00:11;20.10;99.90
11532;DHT22;5822;51.000;5.874;2023-07-30T09:05:04;20.10;99.90
11532;DHT22;5822;51.000;5.874;2023-07-30T09:07:31;20.10;99.90
11532;DHT22;5822;51.000;5.874;2023-07-30T09:09:57;20.20;99.90
11532;DHT22;5822;51.000;5.874;2023-07-30T09:12:32;20.30;99.90
11532;DHT22;5822;51.000;5.874;2023-07-30T09:14:58;20.30;99.90
11532;DHT22;5822;51.000;5.874;2023-07-30T09:17:24;20.40;99.90
11532;DHT22;5822;51.000;5.874;2023-07-30T09:19:51;20.40;99.90
11532;DHT22;5822;51.000;5.874;2023-07-30T09:22:25;20.50;99.90
11532;DHT22;5822;51.000;5.874;2023-07-30T09:24:51;20.50;99.90
11532;DHT22;5822;51.000;5.874;2023-07-30T09:27:24;20.60;99.90
11532;DHT22;5822;51.000;5.874;2023-07-30T09:29:53;20.60;99.90
11532;DHT22;5822;51.000;5.874;2023-07-30T09:32:19;20.50;99.90
11532;DHT22;5822;51.000;5.874;2023-07-30T09:34:45;20.50;99.90
11532;DHT22;5822;51.000;5.874;2023-07-30T09:37:12;20.60;99.90
11532;DHT22;5822;51.000;5.874;2023-07-30T09:39:38;20.70;99.90
11532;DHT22;5822;51.000;5.874;2023-07-30T09:42:05;20.70;99.90
11532;DHT22;5822;51.000;5.874;2023-07-30T09:44:32;20.80;99.90
11532;DHT22;5822;51.000;5.874;2023-07-30T09:47:00;20.80;99.90
11532;DHT22;5822;51.000;5.874;2023-07-30T09:49:30;20.90;99.90
11532;DHT22;5822;51.000;5.874;2023-07-30T09:51:57;20.90;99.90
11532;DHT22;5822;51.000;5.874;2023-07-30T09:54:23;21.00;99.90
11532;DHT22;5822;51.000;5.874;2023-07-30T09:56:49;21.00;99.90
11532;DHT22;5822;51.000;5.874;2023-07-30T09:59:15;21.00;99.90
11532;DHT22;5822;51.000;5.874;2023-07-30T10:01:45;21.00;99.90
11532;DHT22;5822;51.000;5.874;2023-07-30T10:04:12;20.90;99.90
11532;DHT22;5822;51.000;5.874;2023-07-30T10:07:04;20.90;99.90
11532;DHT22;5822;51.000;5.874;2023-07-30T10:09:37;20.80;99.90
11532;DHT22;5822;51.000;5.874;2023-07-30T10:12:10;20.80;99.90
11532;DHT22;5822;51.000;5.874;2023-07-30T10:14:36;20.80;99.90
11532;DHT22;5822;51.000;5.874;2023-07-30T10:17:01;20.90;99.90
11532;DHT22;5822;51.000;5.874;2023-07-30T10:19:28;21.00;99.90
11532;DHT22;5822;51.000;5.874;2023-07-30T10:24:58;21.10;99.90
11532;DHT22;5822;51.000;5.874;2023-07-30T10:27:26;21.10;99.90
11532;DHT22;5822;51.000;5.874;2023-07-30T10:30:12;21.10;99.90
11532;DHT22;5822;51.000;5.874;2023-07-30T10:33:03;21.20;99.90
11532;DHT22;5822;51.000;5.874;2023-07-30T10:35:51;21.20;99.90
11532;DHT22;5822;51.000;5.874;2023-07-30T10:38:21;21.20;99.90
11532;DHT22;5822;51.000;5.874;2023-07-30T10:41:04;21.20;99.90
11532;DHT22;5822;51.000;5.874;2023-07-30T10:43:32;21.20;99.90
11532;DHT22;5822;51.000;5.874;2023-07-30T10:46:00;21.20;99.90
11532;DHT22;5822;51.000;5.874;2023-07-30T10:48:34;21.10;99.90
11532;DHT22;5822;51.000;5.874;2023-07-30T10:51:07;21.10;99.90
11532;DHT22;5822;51.000;5.874;2023-07-30T10:53:34;21.00;99.90
11532;DHT22;5822;51.000;5.874;2023-07-30T10:56:04;20.80;99.90
11532;DHT22;5822;51.000;5.874;2023-07-30T10:58:30;20.60;99.90
11532;DHT22;5822;51.000;5.874;2023-07-30T11:00:57;20.30;99.90
11532;DHT22;5822;51.000;5.874;2023-07-30T11:03:26;20.10;99.90
11532;DHT22;5822;51.000;5.874;2023-07-30T11:05:53;19.90;99.90
11532;DHT22;5822;51.000;5.874;2023-07-30T11:08:18;19.60;99.90
11532;DHT22;5822;51.000;5.874;2023-07-30T11:10:47;19.40;99.90
11532;DHT22;5822;51.000;5.874;2023-07-30T11:13:14;19.40;99.90
11532;DHT22;5822;51.000;5.874;2023-07-30T11:15:44;19.30;99.90
11532;DHT22;5822;51.000;5.874;2023-07-30T11:18:11;19.30;99.90
11532;DHT22;5822;51.000;5.874;2023-07-30T11:20:37;19.30;99.90
11532;DHT22;5822;51.000;5.874;2023-07-30T11:23:16;19.20;99.90
11532;DHT22;5822;51.000;5.874;2023-07-30T11:25:46;19.20;99.90
11532;DHT22;5822;51.000;5.874;2023-07-30T11:28:11;19.30;99.90
11532;DHT22;5822;51.000;5.874;2023-07-30T11:30:37;19.30;99.90
11532;DHT22;5822;51.000;5.874;2023-07-30T11:33:03;19.40;99.90
11532;DHT22;5822;51.000;5.874;2023-07-30T11:35:29;19.40;99.90
11532;DHT22;5822;51.000;5.874;2023-07-30T11:37:55;19.50;99.90
11532;DHT22;5822;51.000;5.874;2023-07-30T11:40:22;19.60;99.90
11532;DHT22;5822;51.000;5.874;2023-07-30T11:42:48;19.70;99.90
11532;DHT22;5822;51.000;5.874;2023-07-30T11:45:21;19.70;99.90
11532;DHT22;5822;51.000;5.874;2023-07-30T11:47:48;19.70;99.90
11532;DHT22;5822;51.000;5.874;2023-07-30T11:50:14;19.70;99.90
11532;DHT22;5822;51.000;5.874;2023-07-30T11:52:56;19.70;99.90
11532;DHT22;5822;51.000;5.874;2023-07-30T11:55:23;19.60;99.90
11532;DHT22;5822;51.000;5.874;2023-07-30T11:57:50;19.50;99.90
11532;DHT22;5822;51.000;5.874;2023-07-30T12:00:16;19.40;99.90
11532;DHT22;5822;51.000;5.874;2023-07-30T12:02:42;19.40;99.90
11532;DHT22;5822;51.000;5.874;2023-07-30T12:05:10;19.40;99.90
11532;DHT22;5822;51.000;5.874;2023-07-30T12:07:39;19.40;99.90
11532;DHT22;5822;51.000;5.874;2023-07-30T12:10:10;19.50;99.90
11532;DHT22;5822;51.000;5.874;2023-07-30T12:12:36;19.50;99.90
11532;DHT22;5822;51.000;5.874;2023-07-30T12:15:01;19.50;99.90
11532;DHT22;5822;51.000;5.874;2023-07-30T12:17:27;19.60;99.90
11532;DHT22;5822;51.000;5.874;2023-07-30T12:19:53;19.70;99.90
11532;DHT22;5822;51.000;5.874;2023-07-30T12:22:18;19.70;99.90
11532;DHT22;5822;51.000;5.874;2023-07-30T12:24:44;19.80;99.90
11532;DHT22;5822;51.000;5.874;2023-07-30T12:27:09;19.80;99.90
11532;DHT22;5822;51.000;5.874;2023-07-30T12:29:35;19.80;99.90
11532;DHT22;5822;51.000;5.874;2023-07-30T12:32:01;19.80;99.90
11532;DHT22;5822;51.000;5.874;2023-07-30T12:34:27;19.90;99.90
11532;DHT22;5822;51.000;5.874;2023-07-30T12:36:52;19.90;99.90
11532;DHT22;5822;51.000;5.874;2023-07-30T12:39:18;20.00;99.90
11532;DHT22;5822;51.000;5.874;2023-07-30T12:41:43;20.10;99.90
11532;DHT22;5822;51.000;5.874;2023-07-30T12:44:09;20.20;99.90
11532;DHT22;5822;51.000;5.874;2023-07-30T12:46:35;20.30;99.90
11532;DHT22;5822;51.000;5.874;2023-07-30T12:49:00;20.30;99.90
11532;DHT22;5822;51.000;5.874;2023-07-30T12:51:30;20.30;99.90
11532;DHT22;5822;51.000;5.874;2023-07-30T12:53:55;20.40;99.90
11532;DHT22;5822;51.000;5.874;2023-07-30T12:56:21;20.50;99.90
11532;DHT22;5822;51.000;5.874;2023-07-30T12:58:47;20.60;99.90
11532;DHT22;5822;51.000;5.874;2023-07-30T13:01:12;20.70;99.90
11532;DHT22;5822;51.000;5.874;2023-07-30T13:03:38;20.70;99.90
11532;DHT22;5822;51.000;5.874;2023-07-30T13:06:04;20.70;99.90
11532;DHT22;5822;51.000;5.874;2023-07-30T13:08:30;20.70;99.90
11532;DHT22;5822;51.000;5.874;2023-07-30T13:10:56;20.70;99.90
11532;DHT22;5822;51.000;5.874;2023-07-30T13:13:21;20.70;99.90
11532;DHT22;5822;51.000;5.874;2023-07-30T13:15:47;20.80;99.90
11532;DHT22;5822;51.000;5.874;2023-07-30T13:18:12;20.80;99.90
11532;DHT22;5822;51.000;5.874;2023-07-30T13:20:38;20.80;99.90
11532;DHT22;5822;51.000;5.874;2023-07-30T13:23:04;20.90;99.90
11532;DHT22;5822;51.000;5.874;2023-07-30T13:25:29;21.10;99.90
11532;DHT22;5822;51.000;5.874;2023-07-30T13:27:55;21.40;99.90
11532;DHT22;5822;51.000;5.874;2023-07-30T13:30:20;21.50;99.90
11532;DHT22;5822;51.000;5.874;2023-07-30T13:32:46;21.80;99.90
11532;DHT22;5822;51.000;5.874;2023-07-30T13:35:12;22.00;99.90
11532;DHT22;5822;51.000;5.874;2023-07-30T13:37:38;22.10;99.90
11532;DHT22;5822;51.000;5.874;2023-07-30T13:40:04;22.30;99.90
11532;DHT22;5822;51.000;5.874;2023-07-30T13:42:30;22.40;99.90
11532;DHT22;5822;51.000;5.874;2023-07-30T13:44:56;22.60;99.90
11532;DHT22;5822;51.000;5.874;2023-07-30T13:47:21;22.70;99.90
11532;DHT22;5822;51.000;5.874;2023-07-30T13:49:47;22.80;99.90
11532;DHT22;5822;51.000;5.874;2023-07-30T13:52:13;22.90;99.90
11532;DHT22;5822;51.000;5.874;2023-07-30T13:54:39;22.90;99.90
11532;DHT22;5822;51.000;5.874;2023-07-30T13:57:05;22.80;99.90
11532;DHT22;5822;51.000;5.874;2023-07-30T13:59:31;22.70;99.90
11532;DHT22;5822;51.000;5.874;2023-07-30T14:01:56;22.60;99.90
11532;DHT22;5822;51.000;5.874;2023-07-30T14:04:22;22.40;99.90
11532;DHT22;5822;51.000;5.874;2023-07-30T14:06:47;22.40;99.90
11532;DHT22;5822;51.000;5.874;2023-07-30T14:09:13;22.60;99.90
11532;DHT22;5822;51.000;5.874;2023-07-30T14:11:39;22.80;99.90
11532;DHT22;5822;51.000;5.874;2023-07-30T14:14:08;22.90;99.90
11532;DHT22;5822;51.000;5.874;2023-07-30T14:16:34;23.10;99.90
11532;DHT22;5822;51.000;5.874;2023-07-30T14:18:59;23.20;99.90
11532;DHT22;5822;51.000;5.874;2023-07-30T14:21:25;23.30;99.90
11532;DHT22;5822;51.000;5.874;2023-07-30T14:23:50;23.20;99.90
11532;DHT22;5822;51.000;5.874;2023-07-30T14:26:16;23.20;99.90
11532;DHT22;5822;51.000;5.874;2023-07-30T14:28:42;23.20;99.90
11532;DHT22;5822;51.000;5.874;2023-07-30T14:31:07;23.30;99.90
11532;DHT22;5822;51.000;5.874;2023-07-30T14:33:33;23.40;99.90
11532;DHT22;5822;51.000;5.874;2023-07-30T14:35:58;23.40;99.90
11532;DHT22;5822;51.000;5.874;2023-07-30T14:38:24;23.40;99.90
11532;DHT22;5822;51.000;5.874;2023-07-30T14:40:50;23.30;99.90
11532;DHT22;5822;51.000;5.874;2023-07-30T14:43:15;23.20;99.90
11532;DHT22;5822;51.000;5.874;2023-07-30T14:45:41;23.10;99.90
11532;DHT22;5822;51.000;5.874;2023-07-30T14:48:06;23.20;99.90
11532;DHT22;5822;51.000;5.874;2023-07-30T14:50:32;23.30;99.90
11532;DHT22;5822;51.000;5.874;2023-07-30T14:52:58;23.30;99.90
11532;DHT22;5822;51.000;5.874;2023-07-30T14:55:23;23.50;99.90
11532;DHT22;5822;51.000;5.874;2023-07-30T14:57:49;23.40;99.90
11532;DHT22;5822;51.000;5.874;2023-07-30T15:00:15;23.40;99.90
11532;DHT22;5822;51.000;5.874;2023-07-30T15:02:43;23.50;99.90
11532;DHT22;5822;51.000;5.874;2023-07-30T15:05:09;23.50;99.90
11532;DHT22;5822;51.000;5.874;2023-07-30T15:07:35;23.50;99.90
11532;DHT22;5822;51.000;5.874;2023-07-30T15:10:00;23.60;99.90
11532;DHT22;5822;51.000;5.874;2023-07-30T15:12:26;23.70;99.90
11532;DHT22;5822;51.000;5.874;2023-07-30T15:14:52;23.90;99.90
11532;DHT22;5822;51.000;5.874;2023-07-30T15:17:17;23.90;99.90
11532;DHT22;5822;51.000;5.874;2023-07-30T15:19:43;23.80;99.90
11532;DHT22;5822;51.000;5.874;2023-07-30T15:22:12;23.80;99.90
11532;DHT22;5822;51.000;5.874;2023-07-30T15:24:38;23.90;99.90
11532;DHT22;5822;51.000;5.874;2023-07-30T15:27:04;23.80;99.90
11532;DHT22;5822;51.000;5.874;2023-07-30T15:29:30;23.80;99.90
11532;DHT22;5822;51.000;5.874;2023-07-30T15:31:55;23.80;99.90
11532;DHT22;5822;51.000;5.874;2023-07-30T15:34:22;23.70;99.90
11532;DHT22;5822;51.000;5.874;2023-07-30T15:36:48;23.70;99.90
11532;DHT22;5822;51.000;5.874;2023-07-30T15:39:14;23.70;99.90
11532;DHT22;5822;51.000;5.874;2023-07-30T15:41:39;23.70;99.90
11532;DHT22;5822;51.000;5.874;2023-07-30T15:44:05;23.70;99.90
11532;DHT22;5822;51.000;5.874;2023-07-30T15:46:30;23.70;99.90